Time;durP1;ratioP1;P1;durP2;ratioP2;P2;SDS_P1;SDS_P2;PMS_P1;PMS_P2;Temp;Humidity;BMP_temperature;BMP_pressure;BME280_temperature;BME280_humidity;BME280_pressure;Samples;Min_cycle;Max_cycle;Signal;HPM_P1;HPM_P2
2022/06/14 00:00:53;;;;;;;3.38;1.88;;;17.80;96.20;;;;;;5064099;28;20040;-81
2022/06/14 00:02:23;;;;;;;4.60;1.73;;;17.60;96.30;;;;;;5064234;28;20120;-81
2022/06/14 00:04:48;;;;;;;3.50;1.73;;;17.50;96.20;;;;;;5064511;28;20041;-81
2022/06/14 00:07:14;;;;;;;5.47;1.90;;;17.50;96.20;;;;;;5045540;28;20430;-81
2022/06/14 00:09:40;;;;;;;7.30;2.00;;;17.50;96.30;;;;;;5079890;28;20088;-81
2022/06/14 00:12:06;;;;;;;3.88;1.85;;;17.50;96.40;;;;;;5063478;28;20086;-81
2022/06/14 00:14:32;;;;;;;7.80;3.30;;;17.50;96.40;;;;;;5064408;28;20041;-82
2022/06/14 00:16:58;;;;;;;4.68;2.60;;;17.50;96.50;;;;;;5078917;28;20041;-82
2022/06/14 00:19:23;;;;;;;6.18;2.33;;;17.50;96.60;;;;;;5062969;28;20604;-81
2022/06/14 00:21:50;;;;;;;2.55;1.42;;;17.50;96.60;;;;;;5062345;28;20057;-81
2022/06/14 00:24:15;;;;;;;6.30;2.38;;;17.40;96.50;;;;;;5062892;28;20071;-81
2022/06/14 00:26:41;;;;;;;5.72;2.35;;;17.40;96.50;;;;;;5063742;28;20558;-81
2022/06/14 00:29:07;;;;;;;5.20;1.88;;;17.40;96.60;;;;;;5060735;28;20049;-81
2022/06/14 00:31:34;;;;;;;3.15;2.00;;;17.40;96.60;;;;;;5063022;28;20043;-81
2022/06/14 00:33:59;;;;;;;3.78;1.92;;;17.30;96.60;;;;;;5062507;28;20037;-81
2022/06/14 00:36:34;;;;;;;5.15;2.60;;;17.30;96.70;;;;;;5063157;28;20068;-81
2022/06/14 00:39:08;;;;;;;4.15;1.80;;;17.30;96.70;;;;;;5062870;28;20056;-81
2022/06/14 00:41:45;;;;;;;4.60;2.92;;;17.30;96.80;;;;;;5062065;28;20591;-81
2022/06/14 00:44:19;;;;;;;2.53;2.00;;;17.20;96.80;;;;;;5063653;28;20037;-81
2022/06/14 00:47:13;;;;;;;5.38;2.47;;;17.20;96.80;;;;;;5063832;28;20140;-81
2022/06/14 00:49:53;;;;;;;3.17;1.80;;;17.20;97.00;;;;;;5062353;28;20041;-81
2022/06/14 00:52:24;;;;;;;6.35;2.00;;;17.20;96.90;;;;;;5063354;28;20048;-81
2022/06/14 00:54:55;;;;;;;5.47;1.77;;;17.10;96.90;;;;;;5064202;28;20896;-81
2022/06/14 00:57:28;;;;;;;5.68;1.95;;;17.10;97.00;;;;;;5063458;28;20577;-81
2022/06/14 01:00:01;;;;;;;2.78;1.58;;;17.10;97.10;;;;;;5060870;28;20064;-81
2022/06/14 01:02:35;;;;;;;6.82;2.10;;;16.90;97.10;;;;;;5061972;28;20045;-81
2022/06/14 01:05:04;;;;;;;6.32;2.13;;;17.00;97.20;;;;;;5060932;28;20041;-81
2022/06/14 01:07:35;;;;;;;4.72;1.75;;;17.00;97.20;;;;;;5080585;28;20135;-82
2022/06/14 01:10:07;;;;;;;4.22;2.00;;;17.00;97.20;;;;;;5066905;28;20041;-82
2022/06/14 01:12:41;;;;;;;3.13;1.67;;;17.00;97.20;;;;;;5066868;28;20075;-81
2022/06/14 01:15:18;;;;;;;9.45;2.38;;;17.00;97.30;;;;;;5065902;28;20037;-81
2022/06/14 01:17:48;;;;;;;3.13;2.05;;;16.90;97.30;;;;;;5067203;28;20508;-81
2022/06/14 01:20:19;;;;;;;5.97;1.98;;;16.90;97.30;;;;;;5065160;28;20068;-81
2022/06/14 01:22:46;;;;;;;2.20;1.70;;;16.90;97.40;;;;;;5066067;28;20564;-82
2022/06/14 01:25:12;;;;;;;5.72;2.65;;;16.90;97.40;;;;;;5064643;28;20037;-81
2022/06/14 01:27:41;;;;;;;6.47;1.90;;;16.80;97.40;;;;;;5065450;28;20041;-82
2022/06/14 01:30:13;;;;;;;3.88;2.05;;;16.80;97.50;;;;;;5066783;28;20967;-81
2022/06/14 01:33:02;;;;;;;;;;;16.80;97.60;;;;;;5064656;28;20045;-81
2022/06/14 01:35:35;;;;;;;3.53;2.00;;;16.80;97.60;;;;;;5059454;28;19920;-81
2022/06/14 01:38:04;;;;;;;4.90;2.85;;;16.70;97.60;;;;;;5066342;28;20102;-81
2022/06/14 01:40:42;;;;;;;7.28;2.15;;;16.70;97.70;;;;;;5067650;28;20041;-82
2022/06/14 01:43:19;;;;;;;3.60;1.77;;;16.70;97.70;;;;;;5066701;28;20049;-82
2022/06/14 01:46:08;;;;;;;5.53;1.95;;;16.60;97.70;;;;;;5064393;28;20067;-81
2022/06/14 01:48:49;;;;;;;6.03;3.17;;;16.70;97.80;;;;;;5057051;28;20048;-81
2022/06/14 01:54:43;;;;;;;4.32;2.03;;;16.60;97.90;;;;;;5066771;28;21935;-82
2022/06/14 01:57:36;;;;;;;5.10;1.75;;;16.60;98.00;;;;;;5028281;28;20186;-82
2022/06/14 02:00:08;;;;;;;6.05;1.92;;;16.50;98.00;;;;;;5064877;28;20130;-81
2022/06/14 02:04:37;;;;;;;4.43;1.80;;;16.50;98.00;;;;;;5065108;28;20521;-81
2022/06/14 02:05:55;;;;;;;7.78;3.88;;;16.50;98.00;;;;;;5064404;28;20041;-81
2022/06/14 02:08:27;;;;;;;4.50;2.28;;;16.50;98.10;;;;;;5064509;28;20098;-81
2022/06/14 02:11:17;;;;;;;6.10;2.47;;;16.40;98.00;;;;;;5065644;28;20531;-82
2022/06/14 02:13:53;;;;;;;4.53;2.30;;;16.60;98.10;;;;;;5064143;28;20136;-81
2022/06/14 02:16:26;;;;;;;2.53;1.92;;;16.40;98.20;;;;;;5064320;28;20120;-81
2022/06/14 02:19:11;;;;;;;6.88;1.98;;;16.40;98.20;;;;;;5064715;28;20091;-81
2022/06/14 02:21:43;;;;;;;5.32;2.50;;;16.30;98.20;;;;;;5065078;28;20092;-81
2022/06/14 02:24:20;;;;;;;4.80;1.90;;;16.30;98.20;;;;;;5064284;28;20557;-81
2022/06/14 02:27:14;;;;;;;4.28;1.90;;;16.20;98.20;;;;;;5048641;28;20055;-81
2022/06/14 02:29:55;;;;;;;5.25;2.05;;;16.20;98.20;;;;;;5063831;28;20040;-82
2022/06/14 02:32:27;;;;;;;4.25;1.50;;;16.20;98.30;;;;;;5062951;28;20079;-81
2022/06/14 02:34:59;;;;;;;5.40;1.90;;;16.20;98.30;;;;;;5063550;28;20076;-81
2022/06/14 02:37:33;;;;;;;8.13;4.05;;;16.20;98.40;;;;;;5062276;28;20049;-81
2022/06/14 02:40:08;;;;;;;6.95;2.25;;;16.10;98.40;;;;;;5065112;28;20044;-81
2022/06/14 02:42:47;;;;;;;3.17;1.80;;;16.10;98.40;;;;;;5065323;28;20057;-81
2022/06/14 02:45:24;;;;;;;3.00;1.70;;;16.10;98.40;;;;;;5063786;28;20747;-81
2022/06/14 02:48:22;;;;;;;7.15;2.83;;;16.10;98.50;;;;;;5064697;28;20056;-81
2022/06/14 02:51:08;;;;;;;5.28;2.20;;;16.10;98.50;;;;;;5063142;28;20039;-81
2022/06/14 02:53:36;;;;;;;4.65;1.95;;;16.00;98.60;;;;;;5064319;28;20040;-81
2022/06/14 02:56:15;;;;;;;2.83;1.75;;;16.00;98.60;;;;;;5062775;28;20048;-82
2022/06/14 02:59:02;;;;;;;4.68;2.83;;;15.90;98.60;;;;;;5062390;28;20512;-81
2022/06/14 03:01:45;;;;;;;4.05;1.80;;;15.90;98.70;;;;;;5062726;28;20497;-81
2022/06/14 03:04:19;;;;;;;4.32;2.30;;;15.90;98.70;;;;;;5063978;28;20041;-82
2022/06/14 03:06:54;;;;;;;4.70;2.55;;;15.90;98.80;;;;;;5065208;28;20483;-81
2022/06/14 03:09:23;;;;;;;6.32;2.90;;;15.80;98.80;;;;;;5080139;28;20554;-81
2022/06/14 03:12:06;;;;;;;4.90;1.80;;;15.80;98.80;;;;;;5065776;28;20514;-81
2022/06/14 03:14:57;;;;;;;6.43;2.20;;;15.80;98.90;;;;;;5062925;28;20086;-81
2022/06/14 03:17:22;;;;;;;4.15;2.17;;;15.80;98.90;;;;;;5062652;28;20045;-81
2022/06/14 03:20:07;;;;;;;8.77;2.45;;;15.70;99.00;;;;;;5063888;28;20045;-81
2022/06/14 03:22:45;;;;;;;3.95;2.35;;;15.60;99.00;;;;;;5062785;28;20037;-81
2022/06/14 03:25:49;;;;;;;7.40;2.50;;;15.60;99.10;;;;;;5078629;28;20156;-81
2022/06/14 03:28:28;;;;;;;3.92;2.40;;;15.60;99.10;;;;;;5060165;28;20635;-80
2022/06/14 03:31:07;;;;;;;6.43;2.25;;;15.60;99.20;;;;;;5064751;28;20052;-82
2022/06/14 03:33:32;;;;;;;4.95;2.30;;;15.50;99.20;;;;;;5064765;28;20033;-81
2022/06/14 03:35:59;;;;;;;6.38;1.83;;;15.50;99.20;;;;;;5063846;28;20520;-81
2022/06/14 03:38:36;;;;;;;7.30;2.22;;;15.50;99.20;;;;;;5063726;28;20055;-81
2022/06/14 03:41:04;;;;;;;8.38;2.67;;;15.40;99.30;;;;;;5062377;28;20041;-81
2022/06/14 03:43:32;;;;;;;4.20;2.30;;;15.40;99.30;;;;;;5064595;28;20124;-82
2022/06/14 03:46:20;;;;;;;7.22;2.50;;;15.40;99.30;;;;;;5064798;28;20175;-81
2022/06/14 03:48:51;;;;;;;7.97;2.15;;;15.40;99.40;;;;;;5063870;28;20041;-81
2022/06/14 03:51:23;;;;;;;3.67;2.10;;;15.40;99.50;;;;;;5062781;28;20151;-81
2022/06/14 03:54:04;;;;;;;6.43;3.25;;;15.30;99.50;;;;;;5060555;28;20045;-81
2022/06/14 03:56:57;;;;;;;5.22;2.15;;;15.30;99.60;;;;;;5063485;28;20596;-81
2022/06/14 03:59:28;;;;;;;12.10;3.70;;;15.40;99.70;;;;;;5065996;28;20041;-81
2022/06/14 04:02:53;;;;;;;4.57;2.10;;;15.30;99.70;;;;;;5061388;28;20049;-81
2022/06/14 04:05:24;;;;;;;7.10;3.90;;;15.40;99.70;;;;;;5061496;28;20167;-81
2022/06/14 04:08:00;;;;;;;5.88;4.05;;;15.30;99.80;;;;;;5061520;28;20131;-81
2022/06/14 04:10:33;;;;;;;10.18;2.95;;;15.30;99.80;;;;;;5062933;28;20050;-80
2022/06/14 04:13:26;;;;;;;4.95;2.95;;;15.30;99.90;;;;;;5062838;28;20051;-80
2022/06/14 04:15:59;;;;;;;7.13;2.22;;;15.20;99.90;;;;;;5027253;28;20118;-79
2022/06/14 04:18:40;;;;;;;7.65;2.65;;;15.20;99.90;;;;;;5063724;28;20048;-80
2022/06/14 04:21:24;;;;;;;5.22;2.65;;;15.20;99.90;;;;;;5077201;28;20088;-81
2022/06/14 04:24:18;;;;;;;3.58;2.38;;;15.20;99.90;;;;;;5063660;28;20040;-81
2022/06/14 04:26:52;;;;;;;4.97;2.60;;;15.20;99.90;;;;;;5065588;28;20102;-81
2022/06/14 04:29:33;;;;;;;3.05;2.25;;;15.20;99.90;;;;;;5062584;28;20170;-85
2022/06/14 04:32:27;;;;;;;4.07;1.87;;;15.20;99.90;;;;;;5047559;28;20526;-83
2022/06/14 04:35:32;;;;;;;4.03;2.63;;;15.30;99.90;;;;;;5064008;28;20041;-81
2022/06/14 04:38:08;;;;;;;6.53;3.80;;;15.30;99.90;;;;;;5041347;28;20521;-82
2022/06/14 04:40:41;;;;;;;5.15;2.80;;;15.30;99.90;;;;;;5060856;28;20044;-82
2022/06/14 04:43:15;;;;;;;5.28;2.30;;;15.30;99.90;;;;;;5066919;28;20068;-81
2022/06/14 04:45:51;;;;;;;6.30;2.75;;;15.30;99.90;;;;;;5063508;28;20033;-82
2022/06/14 04:48:31;;;;;;;10.15;3.50;;;15.30;99.90;;;;;;5064455;28;20185;-81
2022/06/14 04:51:21;;;;;;;6.47;2.35;;;15.30;99.90;;;;;;5065237;28;20037;-81
2022/06/14 04:53:51;;;;;;;4.68;2.53;;;15.40;99.90;;;;;;5080793;28;20040;-82
2022/06/14 04:56:28;;;;;;;3.75;2.58;;;15.30;99.90;;;;;;5066162;28;20045;-82
2022/06/14 04:58:58;;;;;;;8.45;2.80;;;15.30;99.90;;;;;;5050512;28;20041;-82
2022/06/14 05:01:32;;;;;;;4.55;2.78;;;15.30;99.90;;;;;;5050997;28;20072;-82
2022/06/14 05:04:06;;;;;;;6.20;2.30;;;15.30;99.90;;;;;;5066361;28;20099;-82
2022/06/14 05:06:41;;;;;;;3.55;2.10;;;15.30;99.90;;;;;;5066096;28;20045;-82
2022/06/14 05:09:17;;;;;;;7.78;3.28;;;15.30;99.90;;;;;;5068026;28;20481;-83
2022/06/14 05:11:58;;;;;;;4.72;2.35;;;15.40;99.90;;;;;;5067005;28;20041;-81
2022/06/14 05:14:35;;;;;;;4.40;2.67;;;15.40;99.90;;;;;;5065814;28;20040;-83
2022/06/14 05:17:17;;;;;;;10.13;2.75;;;15.40;99.90;;;;;;5066419;28;20045;-81
2022/06/14 05:20:01;;;;;;;3.28;2.30;;;15.40;99.90;;;;;;5066646;28;20044;-82
2022/06/14 05:22:39;;;;;;;6.45;2.17;;;15.50;99.90;;;;;;5066930;28;20692;-82
2022/06/14 05:25:07;;;;;;;6.88;2.50;;;15.50;99.90;;;;;;5066727;28;20045;-83
2022/06/14 05:27:43;;;;;;;6.20;2.15;;;15.50;99.90;;;;;;5066386;28;20103;-81
2022/06/14 05:30:18;;;;;;;2.97;2.55;;;15.60;99.90;;;;;;5068856;28;20565;-82
2022/06/14 05:33:18;;;;;;;6.30;2.30;;;15.60;99.90;;;;;;5068749;28;20121;-82
2022/06/14 05:35:53;;;;;;;5.00;2.40;;;15.70;99.90;;;;;;5067436;28;20052;-82
2022/06/14 05:38:47;;;;;;;5.20;1.98;;;15.70;99.90;;;;;;5067609;28;20041;-82
2022/06/14 05:41:37;;;;;;;6.40;2.63;;;15.70;99.90;;;;;;5065607;28;20195;-82
2022/06/14 05:44:12;;;;;;;7.80;2.30;;;15.70;99.90;;;;;;5067706;28;20574;-82
2022/06/14 05:46:47;;;;;;;5.15;2.40;;;15.70;99.90;;;;;;5067009;28;20055;-82
2022/06/14 05:49:18;;;;;;;4.60;2.45;;;15.70;99.90;;;;;;5066670;28;20056;-83
2022/06/14 05:51:53;;;;;;;7.22;2.17;;;15.80;99.90;;;;;;5083975;28;20102;-82
2022/06/14 05:55:03;;;;;;;5.63;2.20;;;15.80;99.90;;;;;;5067003;28;20037;-82
2022/06/14 05:57:39;;;;;;;8.77;2.45;;;15.70;99.90;;;;;;5042297;28;20056;-82
2022/06/14 06:00:05;;;;;;;4.68;2.25;;;15.80;99.90;;;;;;5068330;28;20449;-82
2022/06/14 06:02:49;;;;;;;3.22;2.20;;;15.80;99.90;;;;;;5067120;28;20068;-83
2022/06/14 06:05:27;;;;;;;4.68;2.20;;;15.70;99.90;;;;;;5065897;28;20048;-82
2022/06/14 06:08:04;;;;;;;4.38;2.70;;;15.80;99.90;;;;;;5065445;28;20128;-82
2022/06/14 06:10:34;;;;;;;6.03;2.58;;;15.80;99.90;;;;;;5064653;28;20052;-82
2022/06/14 06:13:32;;;;;;;5.03;2.28;;;15.80;99.90;;;;;;5067384;28;20106;-82
2022/06/14 06:16:05;;;;;;;6.28;2.50;;;15.90;99.90;;;;;;5067537;28;20039;-82
2022/06/14 06:19:13;;;;;;;4.55;2.08;;;15.90;99.90;;;;;;5065677;28;20160;-82
2022/06/14 06:21:58;;;;;;;5.75;2.25;;;15.90;99.90;;;;;;5028590;28;20139;-82
2022/06/14 06:24:29;;;;;;;6.35;2.20;;;16.00;99.90;;;;;;5066545;28;20621;-82
2022/06/14 06:27:08;;;;;;;4.68;2.65;;;16.00;99.90;;;;;;5066139;28;20048;-82
2022/06/14 06:29:52;;;;;;;3.13;1.70;;;16.00;99.90;;;;;;5066156;28;20045;-81
2022/06/14 06:32:19;;;;;;;6.63;2.38;;;16.00;99.90;;;;;;5082217;28;20041;-82
2022/06/14 06:34:47;;;;;;;2.85;2.17;;;16.00;99.90;;;;;;5065557;28;20131;-82
2022/06/14 06:37:39;;;;;;;3.53;2.00;;;16.00;99.90;;;;;;5066871;28;20163;-82
2022/06/14 06:40:17;;;;;;;5.57;2.50;;;16.00;99.90;;;;;;5067036;28;20599;-82
2022/06/14 06:42:56;;;;;;;6.80;2.10;;;16.10;99.90;;;;;;5065802;28;20574;-82
2022/06/14 06:45:28;;;;;;;6.57;2.63;;;16.10;99.90;;;;;;5081570;28;20652;-82
2022/06/14 06:48:12;;;;;;;;;;;16.10;99.90;;;;;;5066820;28;20084;-82
2022/06/14 06:50:38;;;;;;;6.20;2.13;;;16.20;99.90;;;;;;5068794;28;19924;-81
2022/06/14 06:53:10;;;;;;;3.97;1.98;;;16.20;99.90;;;;;;5066995;28;20401;-82
2022/06/14 06:55:57;;;;;;;5.80;2.15;;;16.30;99.90;;;;;;5066842;28;20037;-83
2022/06/14 06:58:35;;;;;;;6.03;2.97;;;16.30;99.90;;;;;;5065880;28;20119;-82
2022/06/14 07:01:06;;;;;;;3.80;2.15;;;16.30;99.90;;;;;;5065898;28;20045;-81
2022/06/14 07:03:56;;;;;;;5.55;2.75;;;16.30;99.90;;;;;;5065178;28;20136;-82
2022/06/14 07:06:28;;;;;;;8.70;2.00;;;16.40;99.90;;;;;;5067392;28;20510;-82
2022/06/14 07:08:56;;;;;;;13.88;3.78;;;16.40;99.90;;;;;;5049585;28;20584;-82
2022/06/14 07:11:34;;;;;;;5.53;2.28;;;16.40;99.90;;;;;;5065841;28;20048;-82
2022/06/14 07:14:30;;;;;;;3.25;2.20;;;16.50;99.90;;;;;;5066026;28;20040;-83
2022/06/14 07:17:12;;;;;;;10.02;2.85;;;16.50;99.90;;;;;;5027588;28;20175;-82
2022/06/14 07:19:46;;;;;;;3.97;1.60;;;16.50;99.90;;;;;;5064698;28;20127;-82
2022/06/14 07:22:25;;;;;;;6.63;2.25;;;16.60;99.90;;;;;;5066051;28;20102;-82
2022/06/14 07:25:11;;;;;;;9.85;2.10;;;16.60;99.90;;;;;;5066283;28;20043;-82
2022/06/14 07:27:46;;;;;;;7.07;2.85;;;16.70;99.90;;;;;;5058035;28;20056;-82
2022/06/14 07:30:18;;;;;;;3.97;2.20;;;16.70;99.90;;;;;;5066239;28;20557;-81
2022/06/14 07:32:48;;;;;;;6.85;2.20;;;16.70;99.90;;;;;;5048182;28;20056;-83
2022/06/14 07:35:16;;;;;;;2.72;1.55;;;16.70;99.90;;;;;;5063037;28;20040;-81
2022/06/14 07:37:43;;;;;;;6.28;2.58;;;16.80;99.90;;;;;;5067023;28;20044;-82
2022/06/14 07:40:25;;;;;;;2.00;1.63;;;16.80;99.90;;;;;;5067039;28;20044;-82
2022/06/14 07:43:20;;;;;;;;;;;16.90;99.90;;;;;;5064861;28;20091;-83
2022/06/14 07:45:49;;;;;;;8.20;2.70;;;16.90;99.90;;;;;;5029452;28;19921;-82
2022/06/14 07:48:20;;;;;;;3.28;1.50;;;17.00;99.90;;;;;;5065357;28;20175;-83
2022/06/14 07:50:53;;;;;;;3.42;2.15;;;17.00;99.90;;;;;;5066905;28;20565;-82
2022/06/14 07:53:28;;;;;;;3.75;1.75;;;17.00;99.90;;;;;;5051992;28;20053;-82
2022/06/14 07:56:03;;;;;;;3.25;1.70;;;17.10;99.90;;;;;;5067714;28;20111;-82
2022/06/14 07:58:41;;;;;;;5.68;1.88;;;17.10;99.90;;;;;;5068466;28;20049;-82
2022/06/14 08:01:19;;;;;;;3.90;2.05;;;17.20;99.90;;;;;;5085326;28;20075;-81
2022/06/14 08:03:51;;;;;;;5.90;1.85;;;17.20;99.90;;;;;;5068975;28;20051;-84
2022/06/14 08:06:37;;;;;;;;;;;17.20;99.90;;;;;;5065360;28;20044;-83
2022/06/14 08:09:16;;;;;;;3.58;1.73;;;17.20;99.90;;;;;;5055859;28;19997;-83
2022/06/14 08:11:48;;;;;;;3.40;1.65;;;17.30;99.90;;;;;;5065287;28;20045;-82
2022/06/14 08:14:19;;;;;;;2.42;1.52;;;17.30;99.90;;;;;;5066364;28;20051;-82
2022/06/14 08:16:46;;;;;;;3.30;1.67;;;17.40;99.90;;;;;;5063024;28;20610;-82
2022/06/14 08:19:42;;;;;;;6.28;1.60;;;17.40;99.90;;;;;;5064035;28;20087;-82
2022/06/14 08:22:14;;;;;;;3.40;1.67;;;17.50;99.90;;;;;;5060700;28;20059;-82
2022/06/14 08:24:42;;;;;;;;;;;17.50;99.90;;;;;;5081477;28;20522;-82
2022/06/14 08:27:14;;;;;;;6.57;2.15;;;17.50;99.90;;;;;;5065972;28;19927;-82
2022/06/14 08:29:43;;;;;;;2.78;1.77;;;17.60;99.90;;;;;;5064863;28;20514;-82
2022/06/14 08:32:30;;;;;;;4.72;2.47;;;17.70;99.90;;;;;;5066744;28;20195;-82
2022/06/14 08:35:01;;;;;;;5.07;2.00;;;17.70;99.90;;;;;;5064417;28;20036;-81
2022/06/14 08:37:34;;;;;;;2.22;1.50;;;17.70;99.90;;;;;;5063824;28;20680;-82
2022/06/14 08:40:09;;;;;;;3.35;1.50;;;17.70;99.90;;;;;;5065811;28;20127;-82
2022/06/14 08:42:37;;;;;;;4.50;2.10;;;17.70;99.90;;;;;;5064287;28;20053;-82
2022/06/14 08:45:23;;;;;;;5.47;2.00;;;17.70;99.90;;;;;;5079420;28;20041;-81
2022/06/14 08:48:18;;;;;;;5.35;1.77;;;17.80;99.90;;;;;;5064332;28;20122;-82
2022/06/14 08:50:53;;;;;;;8.63;2.53;;;17.80;99.90;;;;;;5065824;28;20069;-82
2022/06/14 08:54:07;;;;;;;4.00;1.73;;;17.80;99.90;;;;;;5064976;28;20037;-81
2022/06/14 08:56:42;;;;;;;6.60;2.35;;;17.90;99.90;;;;;;5022647;28;20096;-82
2022/06/14 08:59:33;;;;;;;6.63;2.78;;;17.90;99.90;;;;;;5044641;28;20060;-82
2022/06/14 09:02:32;;;;;;;5.80;1.88;;;18.00;99.90;;;;;;5079357;28;20990;-82
2022/06/14 09:05:23;;;;;;;4.53;2.28;;;18.00;99.90;;;;;;5064113;28;20455;-82
2022/06/14 09:08:16;;;;;;;7.07;1.98;;;18.00;99.90;;;;;;5064898;28;20144;-84
2022/06/14 09:11:24;;;;;;;7.18;3.45;;;18.10;99.90;;;;;;5064205;28;20041;-82
2022/06/14 09:13:53;;;;;;;6.43;1.88;;;18.20;99.90;;;;;;5063950;28;20052;-82
2022/06/14 09:16:49;;;;;;;5.22;2.10;;;18.20;99.90;;;;;;5064454;28;20044;-82
2022/06/14 09:19:51;;;;;;;3.42;1.73;;;18.20;99.90;;;;;;5060813;28;20052;-82
2022/06/14 09:22:28;;;;;;;4.50;2.28;;;18.20;99.90;;;;;;4982170;28;20075;-82
2022/06/14 09:25:05;;;;;;;5.40;2.30;;;18.30;99.90;;;;;;5054811;28;20084;-82
2022/06/14 09:28:02;;;;;;;4.55;1.85;;;18.30;99.90;;;;;;5065384;28;20072;-82
2022/06/14 09:30:34;;;;;;;4.40;2.05;;;18.40;99.90;;;;;;5066811;28;20037;-82
2022/06/14 09:33:15;;;;;;;7.18;2.75;;;18.40;99.90;;;;;;5066379;28;20043;-82
2022/06/14 09:36:06;;;;;;;5.63;2.07;;;18.40;99.90;;;;;;5065953;28;20048;-82
2022/06/14 09:38:41;;;;;;;12.80;3.10;;;18.50;99.90;;;;;;5066220;28;20048;-82
2022/06/14 09:41:16;;;;;;;5.55;1.67;;;18.60;99.90;;;;;;5067336;28;20069;-81
2022/06/14 09:43:44;;;;;;;5.10;1.90;;;18.60;99.90;;;;;;5068613;28;20041;-82
2022/06/14 09:46:17;;;;;;;6.45;2.63;;;18.60;99.90;;;;;;5068270;28;20053;-82
2022/06/14 09:49:19;;;;;;;5.20;1.83;;;18.70;99.90;;;;;;5065734;28;20467;-82
2022/06/14 09:52:15;;;;;;;3.40;2.33;;;18.70;99.90;;;;;;5079276;28;20573;-82
2022/06/14 09:55:21;;;;;;;6.55;2.20;;;18.80;99.90;;;;;;5065786;28;20044;-82
2022/06/14 09:58:24;;;;;;;6.80;2.47;;;18.80;99.90;;;;;;5067334;28;20307;-82
2022/06/14 10:01:11;;;;;;;5.60;1.80;;;18.80;99.90;;;;;;5068103;28;20102;-82
2022/06/14 10:03:40;;;;;;;4.72;2.28;;;18.90;99.90;;;;;;5067671;28;20041;-82
2022/06/14 10:06:24;;;;;;;3.00;1.80;;;18.90;99.90;;;;;;5067568;28;20045;-82
2022/06/14 10:09:09;;;;;;;3.03;1.92;;;19.00;99.90;;;;;;5083051;28;20044;-81
2022/06/14 10:11:47;;;;;;;5.30;2.60;;;19.00;99.90;;;;;;5066886;28;20037;-82
2022/06/14 10:14:25;;;;;;;4.47;2.78;;;19.10;99.90;;;;;;5067170;28;20037;-82
2022/06/14 10:17:30;;;;;;;2.97;1.77;;;19.10;99.80;;;;;;5067068;28;20056;-81
2022/06/14 10:20:10;;;;;;;7.38;2.08;;;19.10;99.70;;;;;;5067029;28;20048;-82
2022/06/14 10:23:02;;;;;;;5.43;1.80;;;19.20;99.80;;;;;;5066347;28;20041;-81
2022/06/14 10:28:52;;;;;;;5.40;2.25;;;19.20;99.30;;;;;;5066902;28;20131;-82
2022/06/14 10:31:34;;;;;;;4.07;2.97;;;19.20;99.10;;;;;;5082417;28;20160;-81
2022/06/14 10:34:25;;;;;;;4.78;1.73;;;19.20;99.00;;;;;;5066579;28;20041;-82
2022/06/14 10:37:12;;;;;;;5.32;2.10;;;19.30;99.00;;;;;;5066338;28;20076;-82
2022/06/14 10:40:16;;;;;;;8.18;1.85;;;19.30;98.90;;;;;;5080170;28;20051;-82
2022/06/14 10:43:03;;;;;;;5.85;2.90;;;19.40;98.60;;;;;;5067743;28;20115;-81
2022/06/14 10:45:39;;;;;;;5.03;1.67;;;19.40;98.50;;;;;;5068329;28;20037;-81
2022/06/14 10:48:35;;;;;;;4.35;2.75;;;19.40;98.40;;;;;;5066860;28;20037;-81
2022/06/14 10:51:36;;;;;;;6.30;1.88;;;19.50;98.30;;;;;;5066230;28;20523;-81
2022/06/14 10:54:42;;;;;;;4.55;1.80;;;19.50;98.20;;;;;;5066234;28;20515;-82
2022/06/14 10:57:25;;;;;;;5.15;1.67;;;19.50;98.20;;;;;;5057053;28;20061;-81
2022/06/14 11:00:15;;;;;;;5.65;2.10;;;19.50;97.90;;;;;;5067018;28;20861;-81
2022/06/14 11:02:58;;;;;;;4.18;2.38;;;19.50;97.70;;;;;;5067495;28;20048;-82
2022/06/14 11:05:42;;;;;;;3.63;1.63;;;19.60;97.50;;;;;;5066022;28;20047;-82
2022/06/14 11:08:20;;;;;;;4.65;2.13;;;19.60;97.40;;;;;;5066915;28;20052;-82
2022/06/14 11:10:59;;;;;;;7.28;2.10;;;19.70;97.10;;;;;;5065263;28;20052;-82
2022/06/14 11:13:55;;;;;;;4.97;2.30;;;19.70;97.10;;;;;;5065764;28;20051;-81
2022/06/14 11:16:36;;;;;;;4.20;2.38;;;19.70;97.00;;;;;;5065893;28;20167;-82
2022/06/14 11:19:18;;;;;;;4.97;2.20;;;19.70;97.00;;;;;;5064456;28;20167;-81
2022/06/14 11:22:10;;;;;;;6.00;2.03;;;19.80;97.00;;;;;;5065379;28;20106;-82
2022/06/14 11:24:40;;;;;;;4.50;1.88;;;19.80;97.10;;;;;;5066774;28;20119;-82
2022/06/14 11:27:19;;;;;;;4.97;2.38;;;19.90;96.80;;;;;;5081537;28;20045;-82
2022/06/14 11:30:12;;;;;;;4.15;2.33;;;19.90;96.60;;;;;;5063910;28;20176;-82
2022/06/14 11:32:56;;;;;;;11.13;2.20;;;19.90;96.50;;;;;;5064065;28;20061;-82
2022/06/14 11:35:54;;;;;;;7.32;2.72;;;20.00;96.30;;;;;;5067219;28;20106;-82
2022/06/14 11:38:39;;;;;;;3.33;2.28;;;20.10;96.00;;;;;;5042215;28;20124;-81
2022/06/14 11:41:07;;;;;;;3.45;1.60;;;20.20;95.90;;;;;;5062420;28;20045;-82
2022/06/14 11:44:18;;;;;;;5.00;2.35;;;20.30;95.70;;;;;;5066424;28;20064;-82
2022/06/14 11:47:02;;;;;;;10.95;2.28;;;20.30;95.40;;;;;;5053680;28;20057;-81
2022/06/14 11:49:59;;;;;;;4.38;1.80;;;20.40;95.40;;;;;;5080959;28;20048;-82
2022/06/14 11:52:33;;;;;;;8.13;2.85;;;20.40;95.20;;;;;;5066472;28;20504;-81
2022/06/14 11:55:30;;;;;;;7.03;2.45;;;20.50;95.10;;;;;;5064556;28;20529;-81
2022/06/14 11:58:27;;;;;;;5.43;2.60;;;20.50;94.90;;;;;;5064985;28;20537;-81
2022/06/14 12:01:17;;;;;;;9.05;2.97;;;20.60;94.80;;;;;;5065022;28;20637;-82
2022/06/14 12:03:58;;;;;;;4.20;1.80;;;20.70;94.90;;;;;;5065539;28;20061;-81
2022/06/14 12:06:45;;;;;;;5.23;1.93;;;20.80;94.90;;;;;;5066030;28;20059;-81
2022/06/14 12:12:14;;;;;;;8.57;3.88;;;20.90;94.90;;;;;;5064069;28;27156;-81
2022/06/14 12:14:43;;;;;;;5.78;1.83;;;20.90;94.60;;;;;;5080001;28;20087;-81
2022/06/14 12:17:33;;;;;;;4.80;1.90;;;21.00;94.60;;;;;;5064656;28;20072;-82
2022/06/14 12:20:09;;;;;;;3.85;1.98;;;21.00;94.40;;;;;;5064499;28;20156;-81
2022/06/14 12:22:49;;;;;;;10.07;2.78;;;21.00;94.30;;;;;;5063543;28;20131;-81
2022/06/14 12:28:36;;;;;;;8.02;2.55;;;20.90;94.00;;;;;;5067358;28;20120;-81
2022/06/14 12:31:15;;;;;;;4.53;1.92;;;21.00;94.20;;;;;;5079702;28;20048;-81
2022/06/14 12:33:48;;;;;;;6.50;2.83;;;21.00;94.00;;;;;;5064853;28;20580;-81
2022/06/14 12:36:25;;;;;;;3.10;1.70;;;21.10;93.90;;;;;;5063295;28;20515;-81
2022/06/14 12:38:55;;;;;;;5.60;2.10;;;21.20;93.70;;;;;;5078017;28;20136;-81
2022/06/14 12:41:33;;;;;;;6.55;2.22;;;21.40;93.70;;;;;;5059617;28;20045;-82
2022/06/14 12:44:02;;;;;;;4.60;2.28;;;21.50;93.30;;;;;;5062045;28;20040;-81
2022/06/14 12:46:33;;;;;;;5.50;1.77;;;21.70;93.10;;;;;;5062822;28;20051;-82
2022/06/14 12:49:08;;;;;;;8.83;2.27;;;21.80;92.90;;;;;;5063114;28;20055;-81
2022/06/14 12:51:39;;;;;;;4.60;2.00;;;21.90;92.80;;;;;;5061529;28;20315;-82
2022/06/14 12:54:15;;;;;;;9.38;2.72;;;22.00;92.60;;;;;;5060891;28;20092;-82
2022/06/14 12:56:51;;;;;;;8.10;2.28;;;22.10;92.60;;;;;;5062589;28;20051;-82
2022/06/14 12:59:49;;;;;;;4.95;2.42;;;22.10;92.40;;;;;;5064133;28;20597;-82
2022/06/14 13:02:33;;;;;;;4.22;2.20;;;22.00;92.10;;;;;;5062381;28;20045;-81
2022/06/14 13:05:11;;;;;;;8.32;2.35;;;21.90;92.10;;;;;;5064500;28;20051;-82
2022/06/14 13:08:02;;;;;;;3.22;1.98;;;21.80;91.90;;;;;;5082818;28;20135;-82
2022/06/14 13:10:37;;;;;;;4.13;2.55;;;21.70;92.00;;;;;;5066753;28;20072;-82
2022/06/14 13:13:32;;;;;;;5.15;1.77;;;21.60;91.90;;;;;;5065321;28;20052;-82
2022/06/14 13:16:33;;;;;;;3.97;2.03;;;21.60;91.80;;;;;;5056196;28;20618;-82
2022/06/14 13:19:13;;;;;;;4.32;2.25;;;21.50;91.70;;;;;;5066576;28;20045;-81
2022/06/14 13:22:33;;;;;;;3.10;2.08;;;21.50;91.80;;;;;;5066452;28;20045;-82
2022/06/14 13:25:36;;;;;;;5.10;2.28;;;21.40;91.90;;;;;;4968545;28;20398;-82
2022/06/14 13:28:07;;;;;;;7.68;2.42;;;21.50;91.80;;;;;;4975001;28;20065;-81
2022/06/14 13:30:43;;;;;;;;;;;21.50;91.80;;;;;;5039375;28;20053;-82
2022/06/14 13:33:28;;;;;;;4.30;2.47;;;21.50;91.80;;;;;;5065928;28;19976;-82
2022/06/14 13:36:13;;;;;;;4.80;2.25;;;21.50;91.60;;;;;;5068313;28;20559;-81
2022/06/14 13:38:52;;;;;;;4.97;2.38;;;21.40;91.40;;;;;;5085014;28;20049;-82
2022/06/14 13:42:00;;;;;;;3.53;1.95;;;21.40;91.50;;;;;;5065842;28;20048;-82
2022/06/14 13:44:39;;;;;;;3.20;1.70;;;21.50;91.40;;;;;;5068354;28;20045;-81
2022/06/14 13:47:14;;;;;;;3.70;1.90;;;21.50;91.50;;;;;;5066701;28;20045;-82
2022/06/14 13:50:03;;;;;;;4.82;2.10;;;21.50;91.30;;;;;;5067489;28;20065;-81
2022/06/14 13:52:38;;;;;;;3.20;2.28;;;21.50;91.20;;;;;;5068854;28;20495;-81
2022/06/14 13:55:13;;;;;;;6.63;2.28;;;21.60;91.30;;;;;;5049905;28;20523;-82
2022/06/14 13:57:39;;;;;;;4.75;2.30;;;21.60;91.40;;;;;;5067378;28;20253;-81
2022/06/14 14:00:24;;;;;;;4.45;2.10;;;21.60;91.50;;;;;;5066915;28;20048;-81
2022/06/14 14:03:11;;;;;;;9.32;3.35;;;21.70;91.50;;;;;;5068498;28;20048;-81
2022/06/14 14:05:45;;;;;;;3.38;2.35;;;21.70;91.40;;;;;;5068189;28;20540;-82